ESH weather

Shoreham Airport
Brighton, England, United Kingdom

Public forecast

Using degrees Celsius for public forecast. Weather courtesy of forecast.io.

Current aviation weather report (METAR) for Shoreham Airport

Retrieved 2019/10/18 09:20 UTC (33 minutes ago):

EGKA 180920Z 24009KT 9999 VCSH FEW008 FEW020TCU 13/10 Q1001

Aviation forecast (TAF) for Shoreham Airport

Forecast is more than 12 hours old.

Retrieved 2016/03/02 12:00 UTC (4 years ago):

TAF EGKA 021104Z 0212/0221 25015G25KT 9999 SCT020 TEMPO 0212/0216 25025G38KT 5000 SHRA BKN012CB PROB30 TEMPO 0212/0215 2500 +SHGS +SHRASN TEMPO 0216/0221 29025G35KT TEMPO 0218/0221 BKN014